메인 페이지
METAR-TAF:

METAR-TAF

공항 :

Hurlburt Field

Mary Esther, 플로리다, 미국

위도: 30-25N, 경도: 086-41W, 고도: 12m

현재 날씨관측

예보는 34분 전, 13:56시(UTC)에 발표되었습니다.
7kt
온도 28°C
습도 70%
기압 1016 hPa
시정: 16.1km
고도 2500ft 상공 구름 보통
고도 25000ft 상공 구름 보통

METAR: KHRT 291356Z 19007KT 10SM SCT025 SCT250 28/22 A3001 RMK AO2A SLP164 T02840221 $

시각: 09:30 (14:30 UTC)

예보

예보는 28분 전, 14:02시(UTC)에 발표되었습니다.
예보 대상 시간: 29일 14시부터 30일 16시까지 (UTC)
남남동10kt
시정 10km 이상
고도 1500ft 상공 구름 조금
고도 5000ft 상공 구름 보통
전환 중
29일 16시부터 29일 17시까지 (UTC)
남서12kt, 순간 최대 풍속 20kt
시정: 4800m
고도 1000ft 상공 구름 보통
고도 2000ft 상공 구름 많음, 적란운.
고도 12000ft 상공 흐림
뇌우, 비
전환 중
29일 19시부터 29일 20시까지 (UTC)
서남서12kt
시정 10km 이상
고도 4000ft 상공 구름 조금
고도 18000ft 상공 구름 보통

TAF: KHRT 291402Z 2914/3016 16010KT 9999 FEW015 SCT050 QNH3000INS BECMG 2916/2917 23012G20KT 4800 TSRA SCT010 BKN020CB OVC120 QNH2992INS BECMG 2919/2920 25012KT 9999 NSW FEW040 SCT180 QNH2993INS TX29/2920Z TN23/3009Z

4,000개 이상의 공항 관측 자료 및 예보 (METAR 및 TAF 보고).

지도상에서 검색 가능한 기상관측소가 노란 점과 빨간 점으로 표시되어 있습니다.

기상관측소 명을 보려면 표시 위로 마우스를 이동하세요.

날씨 관측과 예보를 보려면 클릭하세요.

지도 변경 : 확대하려면 엑스 표시가 있는 녹색 버튼, 축소하려면 빼기 표시가 있는 녹색 버튼, 다음 페이지의 지도를 보려면 녹색 화살표를 클릭하세요.


METAR-TAF: